Time;durP1;ratioP1;P1;durP2;ratioP2;P2;SDS_P1;SDS_P2;PMS_P1;PMS_P2;Temp;Humidity;BMP_temperature;BMP_pressure;BME280_temperature;BME280_humidity;BME280_pressure;Samples;Min_cycle;Max_cycle;Signal;HPM_P1;HPM_P2
2022/10/21 00:00:29;;;;;;;;;2.00;0.67;;;;;18.81;69.31;100125.28;2113729;27;46719;-73
2022/10/21 00:01:29;;;;;;;;;2.00;1.33;;;;;18.83;68.88;100125.19;2117040;27;46545;-72
2022/10/21 00:02:29;;;;;;;;;1.00;1.00;;;;;18.84;69.14;100117.97;2099652;28;46505;-73
2022/10/21 00:03:30;;;;;;;;;2.00;1.67;;;;;18.84;69.18;100118.84;2105458;27;46381;-72
2022/10/21 00:04:31;;;;;;;;;2.00;1.00;;;;;18.84;68.96;100117.97;2117601;27;46499;-73
2022/10/21 00:05:32;;;;;;;;;1.00;0.00;;;;;18.84;68.93;100115.28;2123044;27;47216;-73
2022/10/21 00:06:32;;;;;;;;;1.67;1.00;;;;;18.84;68.84;100126.03;2101467;28;45522;-71
2022/10/21 00:07:34;;;;;;;;;2.00;2.00;;;;;18.83;69.31;100117.09;2102340;27;46199;-72
2022/10/21 00:08:34;;;;;;;;;3.00;2.00;;;;;18.81;68.80;100119.03;2114740;27;46498;-71
2022/10/21 00:09:35;;;;;;;;;2.00;0.00;;;;;18.83;69.30;100118.94;2123337;27;46126;-74
2022/10/21 00:10:35;;;;;;;;;1.67;1.67;;;;;18.81;69.13;100111.84;2117969;27;46619;-71
2022/10/21 00:11:35;;;;;;;;;1.00;1.00;;;;;18.81;69.24;100127.97;2111963;27;46657;-73
2022/10/21 00:12:36;;;;;;;;;2.00;1.67;;;;;18.79;68.83;100119.13;2111588;27;46677;-71
2022/10/21 00:13:38;;;;;;;;;3.00;0.00;;;;;18.80;69.02;100120.88;2121807;27;45875;-71
2022/10/21 00:14:38;;;;;;;;;0.00;0.00;;;;;18.79;69.16;100119.13;2120686;27;46764;-72
2022/10/21 00:15:39;;;;;;;;;0.00;0.00;;;;;18.78;68.85;100105.78;2125409;27;47437;-72
2022/10/21 00:16:39;;;;;;;;;0.00;0.00;;;;;18.76;69.11;100107.72;2118010;27;45886;-72
2022/10/21 00:17:41;;;;;;;;;1.33;1.33;;;;;18.76;69.38;100107.72;2119406;27;46290;-73
2022/10/21 00:18:46;;;;;;;;;1.75;1.00;;;;;18.76;69.33;100107.72;2114681;27;46653;-72
2022/10/21 00:19:46;;;;;;;;;1.75;1.75;;;;;18.74;69.51;100104.25;2115171;27;46373;-71
2022/10/21 00:20:46;;;;;;;;;2.00;2.00;;;;;18.74;69.24;100096.19;2113344;27;46690;-72
2022/10/21 00:21:46;;;;;;;;;1.33;1.33;;;;;18.73;69.42;100098.03;2117210;27;46681;-72
2022/10/21 00:22:47;;;;;;;;;1.00;1.00;;;;;18.74;69.24;100094.38;2115332;27;46404;-72
2022/10/21 00:23:48;;;;;;;;;1.33;1.00;;;;;18.74;68.96;100086.31;2119408;27;46797;-70
2022/10/21 00:24:49;;;;;;;;;1.50;0.00;;;;;18.75;68.95;100093.41;2110094;27;46998;-72
2022/10/21 00:25:49;;;;;;;;;1.33;1.33;;;;;18.77;69.35;100098.69;2088792;28;46567;-72
2022/10/21 00:26:50;;;;;;;;;1.00;0.33;;;;;18.76;69.36;100087.06;2092517;28;45625;-74
2022/10/21 00:27:50;;;;;;;;;1.00;1.00;;;;;18.77;69.50;100096.84;2118490;27;46274;-73
2022/10/21 00:28:57;;;;;;;;;0.67;0.67;;;;;18.79;69.47;100099.44;2105126;27;46962;-72
2022/10/21 00:29:57;;;;;;;;;2.00;2.00;;;;;18.80;68.99;100090.41;2109091;27;46906;-74
2022/10/21 00:30:58;;;;;;;;;1.67;1.67;;;;;18.81;69.58;100097.53;2117353;27;46258;-71
2022/10/21 00:31:58;;;;;;;;;1.67;1.67;;;;;18.83;69.45;100100.13;2115738;27;45503;-73
2022/10/21 00:32:58;;;;;;;;;1.67;1.00;;;;;18.83;69.39;100092.91;2116967;27;46162;-73
2022/10/21 00:33:59;;;;;;;;;2.00;1.00;;;;;18.85;69.43;100092.81;2120666;27;46487;-73
2022/10/21 00:34:59;;;;;;;;;3.00;1.67;;;;;18.85;69.44;100092.81;2119712;27;46665;-72
2022/10/21 00:36:05;;;;;;;;;2.33;1.33;;;;;18.86;69.09;100094.53;2122490;27;46281;-75
2022/10/21 00:37:06;;;;;;;;;2.25;0.75;;;;;18.87;69.18;100096.25;2115039;27;46060;-73
2022/10/21 00:38:06;;;;;;;;;3.67;3.33;;;;;18.88;69.28;100097.97;2118296;27;46291;-73
2022/10/21 00:39:06;;;;;;;;;2.67;2.33;;;;;18.87;69.02;100094.44;2119296;27;45609;-73
2022/10/21 00:40:08;;;;;;;;;1.67;1.67;;;;;18.88;69.12;100093.47;2116119;27;46212;-74
2022/10/21 00:41:10;;;;;;;;;2.00;2.00;;;;;18.89;69.03;100094.31;2109033;27;45619;-71
2022/10/21 00:42:16;;;;;;;;;1.00;1.00;;;;;18.89;68.99;100094.31;2111523;27;46860;-73
2022/10/21 00:43:17;;;;;;;;;1.00;1.00;;;;;18.89;69.13;100089.81;2119420;27;46937;-74
2022/10/21 00:44:17;;;;;;;;;5.67;5.67;;;;;18.88;69.45;100093.47;2119904;27;46128;-73
2022/10/21 00:45:24;;;;;;;;;3.00;3.00;;;;;18.89;69.28;100095.19;2121310;27;46028;-73
2022/10/21 00:46:34;;;;;;;;;2.75;2.00;;;;;18.88;68.98;100088.09;2112143;27;46878;-72
2022/10/21 00:47:41;;;;;;;;;3.25;3.00;;;;;18.89;69.16;100091.63;2112172;27;46259;-71
2022/10/21 00:48:51;;;;;;;;;3.25;2.00;;;;;18.88;69.06;100090.78;2116827;27;45987;-73
2022/10/21 00:50:00;;;;;;;;;3.50;3.00;;;;;18.87;69.19;100086.34;2118063;27;47103;-71
2022/10/21 00:51:11;;;;;;;;;1.25;0.00;;;;;18.88;69.27;100088.09;2118010;27;45989;-74
2022/10/21 00:52:17;;;;;;;;;1.00;1.00;;;;;18.88;69.04;100095.28;2115362;27;45303;-73
2022/10/21 00:53:18;;;;;;;;;0.50;0.50;;;;;18.88;69.32;100081.84;2120687;27;46750;-72
2022/10/21 00:54:22;;;;;;;;;1.00;1.00;;;;;18.87;69.09;100086.34;2116841;27;46407;-72
2022/10/21 00:55:24;;;;;;;;;2.75;2.75;;;;;18.87;69.26;100080.97;2122321;27;47335;-73
2022/10/21 00:56:30;;;;;;;;;1.00;1.00;;;;;18.87;68.92;100074.75;2114899;27;45574;-73
2022/10/21 00:57:34;;;;;;;;;2.00;2.00;;;;;18.86;69.30;100073.88;2119184;27;46983;-71
2022/10/21 00:58:36;;;;;;;;;2.00;2.00;;;;;18.88;69.10;100081.84;2114365;27;45335;-71
2022/10/21 00:59:43;;;;;;;;;1.50;1.50;;;;;18.86;69.26;100070.34;2121860;27;46533;-73
2022/10/21 01:00:43;;;;;;;;;3.00;3.00;;;;;18.86;69.01;100071.19;2114007;27;46410;-70
2022/10/21 01:01:44;;;;;;;;;3.67;2.67;;;;;18.88;68.82;100076.47;2121179;27;45157;-71
2022/10/21 01:02:44;;;;;;;;;2.00;1.67;;;;;18.87;69.24;100072.91;2109124;27;46990;-71
2022/10/21 01:03:45;;;;;;;;;2.00;2.00;;;;;18.88;68.98;100071.09;2112769;27;51158;-73
2022/10/21 01:04:51;;;;;;;;;2.00;1.00;;;;;18.88;68.92;100063.03;2115047;27;46459;-73
2022/10/21 01:05:52;;;;;;;;;2.00;2.00;;;;;18.87;68.90;100056.78;2117841;27;46480;-74
2022/10/21 01:06:53;;;;;;;;;1.25;1.25;;;;;18.88;69.04;100058.50;2115957;27;46547;-73
2022/10/21 01:07:54;;;;;;;;;2.00;2.00;;;;;18.88;69.11;100058.50;2119925;27;46586;-72
2022/10/21 01:08:56;;;;;;;;;2.75;2.00;;;;;18.89;68.67;100056.69;2117265;27;45696;-73
2022/10/21 01:09:56;;;;;;;;;2.75;2.75;;;;;18.89;69.22;100048.63;2119153;27;47161;-72
2022/10/21 01:10:57;;;;;;;;;1.33;1.33;;;;;18.89;69.14;100043.25;2116739;27;46911;-72
2022/10/21 01:12:01;;;;;;;;;0.75;0.75;;;;;18.88;69.36;100038.81;2119941;27;46635;-71
2022/10/21 01:13:52;;;;;;;;;4.25;3.00;;;;;18.86;69.35;100038.06;2119259;27;45739;-71
2022/10/21 01:14:55;;;;;;;;;2.00;2.00;;;;;18.85;69.33;100033.66;2090004;28;46324;-72
2022/10/21 01:16:13;;;;;;;;;2.50;1.75;;;;;18.84;69.12;100029.25;2097315;28;46828;-74
2022/10/21 01:17:26;;;;;;;;;3.00;3.00;;;;;18.84;69.18;100022.06;2096596;28;46572;-73
2022/10/21 01:18:38;;;;;;;;;2.00;0.00;;;;;18.83;69.44;100019.47;2086678;28;47510;-71
2022/10/21 01:20:02;;;;;;;;;2.25;2.25;;;;;18.85;69.64;100020.22;2090415;28;46437;-72
2022/10/21 01:21:10;;;;;;;;;3.25;2.25;;;;;18.87;69.43;100020.97;2088428;28;45737;-73
2022/10/21 01:22:48;;;;;;;;;3.00;2.00;;;;;18.88;69.50;100014.63;2095237;28;45663;-72
2022/10/21 01:23:48;;;;;;;;;2.25;2.25;;;;;18.90;69.54;100012.69;2095452;28;46839;-73
2022/10/21 01:25:06;;;;;;;;;1.67;1.67;;;;;18.89;69.42;100013.66;2090931;28;47352;-71
2022/10/21 01:26:36;;;;;;;;;3.00;2.50;;;;;18.89;69.40;100013.66;2095314;28;46024;-71
2022/10/21 01:28:01;;;;;;;;;1.75;1.75;;;;;18.90;69.44;100007.31;2097648;28;46138;-72
2022/10/21 01:29:08;;;;;;;;;2.50;2.50;;;;;18.90;69.66;100015.38;2096433;28;46453;-73
2022/10/21 01:30:26;;;;;;;;;2.00;2.00;;;;;18.90;69.67;100008.19;2093786;28;46312;-72
2022/10/21 01:31:37;;;;;;;;;1.00;1.00;;;;;18.92;69.72;100006.25;2091547;28;49265;-70
2022/10/21 01:32:58;;;;;;;;;2.75;2.25;;;;;18.92;69.41;99997.31;2076739;28;46472;-72
2022/10/21 01:34:10;;;;;;;;;2.50;2.25;;;;;18.93;69.49;100010.69;2081458;28;47081;-73
2022/10/21 01:35:25;;;;;;;;;1.25;1.25;;;;;18.95;69.83;100014.13;2094598;28;46404;-71
2022/10/21 01:36:41;;;;;;;;;3.00;2.75;;;;;18.96;69.72;100015.84;2092513;28;47319;-72
2022/10/21 01:38:07;;;;;;;;;2.00;2.00;;;;;18.96;69.52;100015.00;2093057;28;46998;-71
2022/10/21 01:39:25;;;;;;;;;2.25;2.00;;;;;18.97;69.23;100033.69;2093065;28;46483;-72
2022/10/21 01:40:35;;;;;;;;;0.75;0.75;;;;;18.98;69.58;100034.56;2096761;28;46143;-72
2022/10/21 01:41:54;;;;;;;;;1.50;1.50;;;;;19.00;69.51;100032.63;2103032;28;47066;-73
2022/10/21 01:42:58;;;;;;;;;4.25;3.50;;;;;19.00;69.59;100032.63;2094874;28;46834;-72
2022/10/21 01:44:22;;;;;;;;;2.50;2.25;;;;;19.01;69.82;100029.84;2088336;28;46665;-72
2022/10/21 01:45:35;;;;;;;;;1.75;1.50;;;;;19.03;69.60;100037.78;2092790;28;46966;-71
2022/10/21 01:46:44;;;;;;;;;3.25;2.50;;;;;19.04;69.54;100034.13;2090510;28;45198;-72
2022/10/21 01:47:51;;;;;;;;;4.00;3.00;;;;;19.06;69.49;100024.16;2101464;28;46614;-73
2022/10/21 01:49:02;;;;;;;;;2.25;1.25;;;;;19.06;69.54;100034.91;2095231;28;46900;-74
2022/10/21 01:50:10;;;;;;;;;3.25;3.25;;;;;19.06;69.20;100026.84;2096620;28;45637;-71
2022/10/21 01:51:11;;;;;;;;;2.25;2.25;;;;;19.07;69.72;100025.88;2114131;27;46366;-72
2022/10/21 01:52:12;;;;;;;;;2.25;1.75;;;;;19.07;69.22;100032.13;2117071;27;46931;-72
2022/10/21 01:53:14;;;;;;;;;2.75;2.00;;;;;19.08;69.69;100025.78;2122164;27;45109;-72
2022/10/21 01:54:21;;;;;;;;;1.25;1.00;;;;;19.09;69.60;100030.19;2118874;27;45989;-72
2022/10/21 01:55:26;;;;;;;;;1.75;1.75;;;;;19.10;69.38;100028.38;2108755;27;46008;-71
2022/10/21 01:56:29;;;;;;;;;5.25;3.50;;;;;19.13;69.29;100032.66;2105864;27;46498;-73
2022/10/21 01:57:36;;;;;;;;;2.00;2.00;;;;;19.11;69.36;100035.47;2109186;27;46831;-71
2022/10/21 01:58:40;;;;;;;;;4.50;4.50;;;;;19.12;69.30;100037.19;2113999;27;48694;-73
2022/10/21 01:59:42;;;;;;;;;2.00;2.00;;;;;19.10;69.48;100041.81;2122079;27;45602;-71
2022/10/21 02:00:45;;;;;;;;;1.75;1.50;;;;;19.10;69.25;100048.03;2116452;27;45429;-71
2022/10/21 02:01:47;;;;;;;;;2.75;1.00;;;;;19.10;69.43;100057.94;2119733;27;45863;-73
2022/10/21 02:02:48;;;;;;;;;2.00;1.25;;;;;19.09;69.42;100064.28;2114502;27;45589;-72
2022/10/21 02:03:54;;;;;;;;;2.67;2.00;;;;;19.08;69.30;100082.25;2123759;27;46181;-71
2022/10/21 02:04:57;;;;;;;;;4.00;3.00;;;;;19.07;69.95;100095.81;2116531;27;45302;-73
2022/10/21 02:05:58;;;;;;;;;1.50;1.50;;;;;19.06;69.65;100108.41;2120038;27;47108;-72
2022/10/21 02:06:58;;;;;;;;;3.00;2.00;;;;;19.05;69.78;100116.53;2117140;27;45369;-73
2022/10/21 02:07:59;;;;;;;;;4.33;3.00;;;;;19.04;69.82;100131.81;2120075;27;46422;-72
2022/10/21 02:08:59;;;;;;;;;2.00;2.00;;;;;19.03;70.04;100130.09;2117257;27;46367;-73
2022/10/21 02:10:00;;;;;;;;;4.00;2.67;;;;;19.02;70.14;100132.88;2117342;27;46435;-73
2022/10/21 02:11:04;;;;;;;;;2.00;2.00;;;;;19.01;70.19;100148.16;2116765;27;46586;-73
2022/10/21 02:12:06;;;;;;;;;2.75;2.25;;;;;19.00;69.91;100140.19;2117265;27;46154;-71
2022/10/21 02:13:10;;;;;;;;;3.75;2.50;;;;;18.96;70.73;100144.91;2118829;27;46369;-71
2022/10/21 02:14:24;;;;;;;;;4.50;4.50;;;;;18.95;70.33;100155.78;2117232;27;46541;-74
2022/10/21 02:15:27;;;;;;;;;3.00;2.00;;;;;18.93;70.92;100150.50;2123905;27;45651;-73
2022/10/21 02:16:32;;;;;;;;;1.75;1.75;;;;;18.92;71.33;100164.88;2118676;27;46423;-73
2022/10/21 02:17:35;;;;;;;;;3.75;3.75;;;;;18.91;71.07;100144.34;2118921;27;46498;-72
2022/10/21 02:18:35;;;;;;;;;1.00;1.00;;;;;18.89;71.25;100165.09;2114410;27;46496;-73
2022/10/21 02:19:36;;;;;;;;;5.33;2.00;;;;;18.87;71.47;100150.88;2121733;27;46202;-72
2022/10/21 02:20:41;;;;;;;;;3.00;3.00;;;;;18.86;71.29;100151.00;2113731;27;45747;-71
2022/10/21 02:21:44;;;;;;;;;3.50;3.50;;;;;18.86;71.55;100143.78;2112440;27;45932;-73
2022/10/21 02:22:47;;;;;;;;;5.00;3.25;;;;;18.83;71.17;100151.19;2111824;27;47078;-72
2022/10/21 02:23:56;;;;;;;;;2.75;2.75;;;;;18.80;71.80;100136.09;2119476;27;46622;-71
2022/10/21 02:25:00;;;;;;;;;3.50;2.00;;;;;18.77;71.74;100128.25;2094508;28;46942;-73
2022/10/21 02:26:00;;;;;;;;;3.00;3.00;;;;;18.75;71.90;100122.09;2101492;27;46779;-73
2022/10/21 02:27:01;;;;;;;;;1.00;1.00;;;;;18.74;71.77;100118.56;2122147;27;46616;-72
2022/10/21 02:28:02;;;;;;;;;1.00;1.00;;;;;18.74;72.23;100110.50;2119722;27;46553;-72
2022/10/21 02:29:03;;;;;;;;;2.00;1.25;;;;;18.73;72.27;100106.09;2122765;27;46631;-72
2022/10/21 02:30:04;;;;;;;;;3.00;3.00;;;;;18.74;72.04;100096.19;2123538;27;45724;-72
2022/10/21 02:31:20;;;;;;;;;1.75;1.75;;;;;18.73;72.38;100092.66;2123513;27;45774;-72
2022/10/21 02:32:37;;;;;;;;;1.00;1.00;;;;;18.73;72.44;100087.28;2122484;27;46363;-73
2022/10/21 02:33:46;;;;;;;;;1.50;1.50;;;;;18.72;72.87;100080.16;2124310;27;47009;-71
2022/10/21 02:35:05;;;;;;;;;1.00;1.00;;;;;18.72;72.59;100073.94;2119855;27;46453;-72
2022/10/21 02:36:28;;;;;;;;;1.00;1.00;;;;;18.71;72.76;100072.22;2123155;27;46960;-72
2022/10/21 02:37:35;;;;;;;;;1.75;1.75;;;;;18.70;72.78;100068.66;2121887;27;46392;-72
2022/10/21 02:38:50;;;;;;;;;3.00;1.00;;;;;18.72;72.74;100060.50;2121396;27;46938;-71
2022/10/21 02:40:04;;;;;;;;;2.25;2.25;;;;;18.73;72.80;100059.53;2115401;27;45920;-71
2022/10/21 02:41:10;;;;;;;;;2.50;2.00;;;;;18.73;72.74;100057.69;2122155;27;46780;-71
2022/10/21 02:42:16;;;;;;;;;3.75;3.25;;;;;18.74;72.99;100051.38;2127972;27;46327;-72
2022/10/21 02:43:53;;;;;;;;;2.25;2.00;;;;;18.76;73.15;100027.06;2120229;27;46711;-72
2022/10/21 02:44:53;;;;;;;;;2.75;1.75;;;;;18.77;72.72;100013.50;2092256;28;46287;-72
2022/10/21 02:45:59;;;;;;;;;2.67;1.33;;;;;18.80;72.88;99994.53;2095456;28;46617;-70
2022/10/21 02:46:59;;;;;;;;;2.50;2.50;;;;;18.81;73.16;99985.50;2093607;28;46374;-72
2022/10/21 02:48:00;;;;;;;;;2.33;1.00;;;;;18.82;73.09;99962.16;2092401;28;46494;-74
2022/10/21 02:49:00;;;;;;;;;1.33;1.00;;;;;18.84;73.27;99957.53;2093441;28;45858;-74
2022/10/21 02:50:00;;;;;;;;;2.33;1.00;;;;;18.85;72.89;99963.78;2095253;28;46272;-72
2022/10/21 02:51:03;;;;;;;;;2.00;1.00;;;;;18.88;72.80;99966.25;2094306;28;46601;-72
2022/10/21 02:52:03;;;;;;;;;2.25;1.75;;;;;18.88;72.96;99967.09;2094231;28;46578;-72
2022/10/21 02:53:04;;;;;;;;;3.00;1.00;;;;;18.90;73.03;99965.16;2094321;28;46396;-73
2022/10/21 02:54:05;;;;;;;;;2.50;2.50;;;;;18.91;73.36;99974.94;2091290;28;45664;-70
2022/10/21 02:55:06;;;;;;;;;1.67;1.67;;;;;18.94;73.30;99971.22;2085889;28;46561;-71
2022/10/21 02:56:07;;;;;;;;;2.67;2.67;;;;;18.94;73.35;99974.75;2084929;28;47029;-72
2022/10/21 02:57:07;;;;;;;;;3.25;2.00;;;;;18.95;73.00;99987.25;2094904;28;46754;-73
2022/10/21 02:58:08;;;;;;;;;1.33;1.33;;;;;18.95;72.99;99992.63;2092388;28;46353;-72
2022/10/21 02:59:08;;;;;;;;;1.33;1.33;;;;;18.97;73.06;99995.19;2070127;28;45861;-73
2022/10/21 03:00:09;;;;;;;;;2.67;2.67;;;;;18.98;73.13;99991.53;2070476;28;46349;-73
2022/10/21 03:01:10;;;;;;;;;1.33;1.33;;;;;18.98;72.88;99987.03;2094009;28;46796;-72
2022/10/21 03:02:10;;;;;;;;;2.00;2.00;;;;;18.97;73.10;99982.63;2094103;28;46546;-74
2022/10/21 03:03:10;;;;;;;;;1.00;1.00;;;;;18.96;73.05;99982.72;2093014;28;46164;-73
2022/10/21 03:04:11;;;;;;;;;1.00;1.00;;;;;18.97;72.89;99979.94;2092274;28;46302;-72
2022/10/21 03:05:11;;;;;;;;;2.00;1.67;;;;;18.98;72.80;99978.09;2091883;28;45721;-72
2022/10/21 03:06:12;;;;;;;;;2.00;2.00;;;;;18.97;72.85;99979.94;2094501;28;46328;-71
2022/10/21 03:07:12;;;;;;;;;1.00;1.00;;;;;18.97;73.38;99977.25;2094474;28;46802;-71
2022/10/21 03:08:12;;;;;;;;;2.00;2.00;;;;;18.95;72.74;99971.09;2095107;28;45522;-72
2022/10/21 03:09:13;;;;;;;;;1.00;1.00;;;;;18.95;73.05;99965.72;2091646;28;46383;-72
2022/10/21 03:10:13;;;;;;;;;1.67;1.67;;;;;18.94;73.15;99963.16;2088775;28;45461;-73
2022/10/21 03:11:13;;;;;;;;;1.00;1.00;;;;;18.92;72.82;99957.84;2090890;28;46311;-72
2022/10/21 03:12:14;;;;;;;;;2.00;2.00;;;;;18.91;72.71;99961.50;2094719;28;46665;-71
2022/10/21 03:13:14;;;;;;;;;1.00;1.00;;;;;18.91;73.41;99963.34;2088359;28;45951;-73
2022/10/21 03:14:15;;;;;;;;;2.67;2.67;;;;;18.90;73.15;99967.00;2087073;28;46644;-73
2022/10/21 03:15:15;;;;;;;;;1.33;1.33;;;;;18.88;73.30;99967.09;2094413;28;45710;-72
2022/10/21 03:16:16;;;;;;;;;2.75;2.75;;;;;18.88;73.34;99974.31;2094759;28;46481;-71
2022/10/21 03:17:16;;;;;;;;;3.00;3.00;;;;;18.86;73.07;99966.34;2092559;28;46282;-72
2022/10/21 03:18:17;;;;;;;;;1.33;1.33;;;;;18.85;73.67;99967.31;2095853;28;46423;-71
2022/10/21 03:19:17;;;;;;;;;2.00;2.00;;;;;18.84;73.38;99979.03;2094841;28;46317;-73
2022/10/21 03:20:18;;;;;;;;;1.00;1.00;;;;;18.84;73.50;99997.00;2096053;28;45530;-72
2022/10/21 03:21:18;;;;;;;;;1.00;1.00;;;;;18.83;73.71;99998.81;2091710;28;45768;-71
2022/10/21 03:22:18;;;;;;;;;2.00;2.00;;;;;18.84;73.64;100007.75;2119948;27;46331;-69
2022/10/21 03:23:19;;;;;;;;;2.33;2.00;;;;;18.84;73.82;100013.97;2118646;27;45674;-72
2022/10/21 03:24:20;;;;;;;;;3.00;2.00;;;;;18.83;73.85;100016.78;2118549;27;46943;-72
2022/10/21 03:25:20;;;;;;;;;3.67;2.00;;;;;18.83;73.78;100019.47;2114476;27;46642;-72
2022/10/21 03:26:20;;;;;;;;;0.33;0.33;;;;;18.84;73.81;100029.25;2109552;27;46397;-72
2022/10/21 03:27:21;;;;;;;;;1.33;1.33;;;;;18.84;73.72;100035.50;2108626;27;45374;-73
2022/10/21 03:28:21;;;;;;;;;1.00;1.00;;;;;18.85;73.56;100045.28;2108305;27;46137;-71
2022/10/21 03:29:22;;;;;;;;;1.67;1.67;;;;;18.84;73.93;100038.19;2123493;27;46977;-73
2022/10/21 03:30:22;;;;;;;;;1.00;1.00;;;;;18.83;73.63;100040.97;2115254;27;47473;-73
2022/10/21 03:31:22;;;;;;;;;1.33;1.33;;;;;18.83;73.72;100049.03;2117572;27;46604;-70
2022/10/21 03:32:23;;;;;;;;;1.67;1.67;;;;;18.81;73.41;100052.69;2114613;27;46406;-72
2022/10/21 03:33:23;;;;;;;;;1.00;1.00;;;;;18.81;73.88;100046.47;2104019;27;47118;-73
2022/10/21 03:34:24;;;;;;;;;0.67;0.67;;;;;18.79;73.91;100043.84;2104191;28;46532;-71
2022/10/21 03:35:24;;;;;;;;;2.67;2.67;;;;;18.80;73.90;100044.69;2117683;27;46307;-71
2022/10/21 03:36:24;;;;;;;;;2.00;2.00;;;;;18.78;73.84;100047.50;2103885;28;46514;-71
2022/10/21 03:37:25;;;;;;;;;1.33;1.33;;;;;18.78;73.84;100043.94;2100799;27;46298;-72
2022/10/21 03:38:25;;;;;;;;;1.33;1.33;;;;;18.78;73.66;100035.88;2111050;27;46779;-72
2022/10/21 03:39:25;;;;;;;;;1.67;1.67;;;;;18.79;73.82;100037.59;2114720;27;45835;-71
2022/10/21 03:40:29;;;;;;;;;2.67;2.00;;;;;18.77;73.86;100026.09;2107454;27;45495;-71
2022/10/21 03:41:29;;;;;;;;;2.00;2.00;;;;;18.77;73.93;100029.66;2110622;27;46255;-73
2022/10/21 03:42:30;;;;;;;;;5.00;1.00;;;;;18.77;73.66;100016.22;2112502;27;46208;-72
2022/10/21 03:43:30;;;;;;;;;2.00;2.00;;;;;18.80;74.09;100007.97;2109561;27;45151;-71
2022/10/21 03:44:30;;;;;;;;;1.33;1.33;;;;;18.80;73.67;100007.97;2109264;27;46142;-71
2022/10/21 03:45:31;;;;;;;;;0.33;0.33;;;;;18.79;73.51;100010.72;2113649;27;46959;-72
2022/10/21 03:46:31;;;;;;;;;2.00;2.00;;;;;18.79;73.87;100011.59;2108209;27;46800;-75
2022/10/21 03:47:31;;;;;;;;;2.67;2.67;;;;;18.79;73.56;100021.47;2108725;27;46566;-71
2022/10/21 03:48:32;;;;;;;;;6.00;2.67;;;;;18.79;73.50;100030.41;2107257;27;46867;-72
2022/10/21 03:49:32;;;;;;;;;1.00;1.00;;;;;18.77;74.02;100026.97;2112156;27;46537;-73
2022/10/21 03:50:33;;;;;;;;;2.33;2.33;;;;;18.79;73.82;100033.09;2112439;27;46273;-70
2022/10/21 03:51:33;;;;;;;;;2.00;2.00;;;;;18.78;73.69;100019.75;2111133;27;46629;-72
2022/10/21 03:52:33;;;;;;;;;2.00;2.00;;;;;18.78;73.43;100019.75;2111635;27;46397;-73
2022/10/21 03:53:34;;;;;;;;;4.00;4.00;;;;;18.77;73.83;100015.34;2111190;27;46765;-72
2022/10/21 03:54:34;;;;;;;;;2.67;2.67;;;;;18.76;73.77;100014.47;2112088;27;46705;-71
2022/10/21 03:55:34;;;;;;;;;0.67;0.67;;;;;18.76;73.28;100019.84;2112206;27;46263;-72
2022/10/21 03:56:35;;;;;;;;;1.33;1.33;;;;;18.75;73.29;100028.03;2110490;27;46751;-71
2022/10/21 03:57:35;;;;;;;;;2.00;2.00;;;;;18.73;73.47;100035.34;2111857;27;47538;-72
2022/10/21 03:58:36;;;;;;;;;4.00;3.00;;;;;18.74;73.38;100037.06;2111942;27;46502;-73
2022/10/21 03:59:36;;;;;;;;;2.67;1.67;;;;;18.72;73.58;100047.91;2109979;27;45556;-71
2022/10/21 04:00:36;;;;;;;;;2.00;2.00;;;;;18.73;73.71;100049.63;2110687;27;46722;-72
2022/10/21 04:01:37;;;;;;;;;0.33;0.33;;;;;18.73;73.95;100040.72;2103552;27;46427;-71
2022/10/21 04:02:37;;;;;;;;;1.00;1.00;;;;;18.70;73.66;100033.72;2105385;27;46879;-71
2022/10/21 04:03:39;;;;;;;;;1.00;1.00;;;;;18.70;73.71;100024.78;2116172;27;46000;-71
2022/10/21 04:04:39;;;;;;;;;4.00;1.25;;;;;18.69;73.76;100026.63;2115374;27;45882;-71
2022/10/21 04:05:39;;;;;;;;;0.67;0.67;;;;;18.69;73.91;100026.63;2114964;27;46281;-72
2022/10/21 04:06:40;;;;;;;;;1.67;1.67;;;;;18.69;73.86;100031.13;2110981;27;46449;-71
2022/10/21 04:07:40;;;;;;;;;1.00;1.00;;;;;18.69;73.76;100036.50;2111469;27;46622;-72
2022/10/21 04:08:40;;;;;;;;;4.00;2.00;;;;;18.68;73.95;100042.84;2111017;27;46826;-72
2022/10/21 04:09:41;;;;;;;;;1.00;1.00;;;;;18.67;73.68;100039.28;2111546;27;45391;-71
2022/10/21 04:10:43;;;;;;;;;2.33;2.33;;;;;18.68;73.92;100042.84;2110750;27;46948;-71
2022/10/21 04:11:44;;;;;;;;;2.25;2.25;;;;;18.67;73.84;100047.34;2112621;27;45866;-71
2022/10/21 04:12:44;;;;;;;;;3.67;3.67;;;;;18.67;73.71;100044.66;2110906;27;46526;-71
2022/10/21 04:13:44;;;;;;;;;1.33;1.33;;;;;18.66;74.06;100042.94;2112289;27;46415;-72
2022/10/21 04:14:44;;;;;;;;;1.00;0.67;;;;;18.67;73.63;100041.09;2111257;27;46399;-71
2022/10/21 04:15:45;;;;;;;;;2.00;2.00;;;;;18.67;73.95;100044.66;2112316;27;46458;-72
2022/10/21 04:16:45;;;;;;;;;4.00;3.33;;;;;18.66;74.19;100044.75;2110166;27;46538;-71
2022/10/21 04:17:45;;;;;;;;;2.00;1.00;;;;;18.65;73.72;100046.59;2108654;27;48296;-70
2022/10/21 04:18:46;;;;;;;;;1.67;1.67;;;;;18.65;74.08;100049.28;2111545;27;45739;-71
2022/10/21 04:19:47;;;;;;;;;2.00;2.00;;;;;18.65;73.83;100046.59;2112084;27;46120;-71
2022/10/21 04:20:47;;;;;;;;;1.33;1.33;;;;;18.64;73.85;100049.38;2102560;27;46504;-72
2022/10/21 04:21:47;;;;;;;;;2.00;2.00;;;;;18.63;73.78;100056.53;2106006;27;46807;-72
2022/10/21 04:22:48;;;;;;;;;2.00;2.00;;;;;18.63;73.96;100048.47;2105294;27;45489;-73
2022/10/21 04:23:48;;;;;;;;;2.00;1.33;;;;;18.63;74.13;100044.94;2116148;27;46600;-73
2022/10/21 04:24:48;;;;;;;;;2.00;1.67;;;;;18.63;73.92;100044.94;2105613;27;45432;-72
2022/10/21 04:25:48;;;;;;;;;2.00;2.00;;;;;18.63;74.17;100039.56;2109425;27;46205;-74
2022/10/21 04:26:49;;;;;;;;;1.00;1.00;;;;;18.63;74.15;100037.72;2109909;27;46200;-73
2022/10/21 04:27:49;;;;;;;;;3.00;2.33;;;;;18.64;73.80;100034.09;2114936;27;46892;-72
2022/10/21 04:28:49;;;;;;;;;1.67;1.67;;;;;18.66;74.18;100039.38;2109581;27;48167;-71
2022/10/21 04:29:50;;;;;;;;;3.33;3.33;;;;;18.66;74.20;100039.38;2114394;27;45662;-73
2022/10/21 04:30:50;;;;;;;;;3.00;2.00;;;;;18.68;74.11;100045.53;2102355;27;46225;-73
2022/10/21 04:31:50;;;;;;;;;3.00;2.67;;;;;18.67;73.95;100039.28;2100991;28;46241;-73
2022/10/21 04:32:51;;;;;;;;;2.00;2.00;;;;;18.68;73.81;100045.53;2107411;27;45999;-72
2022/10/21 04:33:51;;;;;;;;;2.67;2.67;;;;;18.68;73.72;100041.03;2112180;27;46231;-72
2022/10/21 04:34:51;;;;;;;;;3.33;2.33;;;;;18.68;73.72;100038.34;2110296;27;46841;-73
2022/10/21 04:35:53;;;;;;;;;3.67;2.33;;;;;18.69;73.78;100047.25;2118851;27;45559;-73
2022/10/21 04:36:53;;;;;;;;;3.00;3.00;;;;;18.69;73.99;100041.88;2115232;27;46824;-71
2022/10/21 04:37:53;;;;;;;;;3.67;2.67;;;;;18.70;74.12;100049.84;2107617;27;46920;-71
2022/10/21 04:38:54;;;;;;;;;4.00;4.00;;;;;18.70;73.97;100049.84;2107216;27;46348;-74
2022/10/21 04:39:56;;;;;;;;;2.33;2.33;;;;;18.70;73.91;100039.09;2109190;27;46223;-73
2022/10/21 04:41:01;;;;;;;;;12.50;12.25;;;;;18.71;74.13;100042.66;2109708;27;46506;-73
2022/10/21 04:42:02;;;;;;;;;6.00;6.00;;;;;18.71;73.92;100046.19;2110629;27;46373;-74
2022/10/21 04:43:03;;;;;;;;;2.50;2.25;;;;;18.72;74.05;100044.38;2109009;27;47012;-73
2022/10/21 04:44:05;;;;;;;;;3.00;3.00;;;;;18.71;73.99;100038.13;2112147;27;46441;-72
2022/10/21 04:45:06;;;;;;;;;6.50;4.75;;;;;18.72;74.19;100041.69;2110941;27;46693;-72
2022/10/21 04:46:12;;;;;;;;;4.00;3.25;;;;;18.73;74.19;100036.19;2098847;27;45257;-72
2022/10/21 04:47:13;;;;;;;;;3.25;3.25;;;;;18.73;74.77;100046.09;2099714;27;48703;-71
2022/10/21 04:48:14;;;;;;;;;3.33;3.33;;;;;18.74;74.29;100045.13;2116829;27;45403;-72
2022/10/21 04:49:14;;;;;;;;;3.00;3.00;;;;;18.73;74.38;100055.00;2105357;27;47861;-71
2022/10/21 04:50:14;;;;;;;;;4.33;4.00;;;;;18.73;74.14;100051.47;2109207;27;46588;-73
2022/10/21 04:51:15;;;;;;;;;5.00;4.33;;;;;18.72;74.28;100053.28;2105524;27;46745;-71
2022/10/21 04:52:15;;;;;;;;;4.67;4.33;;;;;18.73;74.77;100056.84;2105418;27;46787;-72
2022/10/21 04:53:16;;;;;;;;;4.67;4.00;;;;;18.72;74.62;100058.66;2107386;27;46681;-71
2022/10/21 04:54:16;;;;;;;;;7.00;5.33;;;;;18.73;74.28;100057.69;2111740;27;45315;-72
2022/10/21 04:55:16;;;;;;;;;4.00;4.00;;;;;18.74;74.61;100053.19;2115875;27;46204;-72
2022/10/21 04:56:17;;;;;;;;;3.67;3.67;;;;;18.77;74.29;100052.97;2108429;27;46273;-72